sensor_id;sensor_type;location;lat;lon;timestamp;pressure;altitude;pressure_sealevel;temperature;humidity
46942;BME280;32676;52.630;4.896;2023-08-06T00:01:12;99924.22;;;16.08;86.93
46942;BME280;32676;52.630;4.896;2023-08-06T00:03:38;99922.53;;;16.07;86.88
46942;BME280;32676;52.630;4.896;2023-08-06T00:06:05;99905.16;;;16.03;86.78
46942;BME280;32676;52.630;4.896;2023-08-06T00:08:33;99894.75;;;16.00;86.86
46942;BME280;32676;52.630;4.896;2023-08-06T00:10:59;99897.41;;;16.00;86.77
46942;BME280;32676;52.630;4.896;2023-08-06T00:13:25;99896.66;;;15.98;86.77
46942;BME280;32676;52.630;4.896;2023-08-06T00:15:52;99898.38;;;15.99;87.01
46942;BME280;32676;52.630;4.896;2023-08-06T00:18:18;99896.66;;;15.98;87.16
46942;BME280;32676;52.630;4.896;2023-08-06T00:20:44;99890.53;;;15.98;87.57
46942;BME280;32676;52.630;4.896;2023-08-06T00:23:10;99899.31;;;15.98;87.66
46942;BME280;32676;52.630;4.896;2023-08-06T00:25:38;99895.00;;;15.97;87.49
46942;BME280;32676;52.630;4.896;2023-08-06T00:28:04;99901.97;;;15.98;87.34
46942;BME280;32676;52.630;4.896;2023-08-06T00:30:31;99889.69;;;15.97;87.41
46942;BME280;32676;52.630;4.896;2023-08-06T00:32:57;99897.63;;;15.97;87.49
46942;BME280;32676;52.630;4.896;2023-08-06T00:35:23;99893.28;;;15.96;87.26
46942;BME280;32676;52.630;4.896;2023-08-06T00:37:50;99892.44;;;15.96;87.13
46942;BME280;32676;52.630;4.896;2023-08-06T00:40:16;99886.28;;;15.95;86.96
46942;BME280;32676;52.630;4.896;2023-08-06T00:42:47;99889.91;;;15.94;87.12
46942;BME280;32676;52.630;4.896;2023-08-06T00:45:13;99885.53;;;15.93;86.90
46942;BME280;32676;52.630;4.896;2023-08-06T00:47:39;99885.44;;;15.95;87.08
46942;BME280;32676;52.630;4.896;2023-08-06T00:50:07;99881.22;;;15.92;87.11
46942;BME280;32676;52.630;4.896;2023-08-06T00:52:33;99873.38;;;15.90;87.06
46942;BME280;32676;52.630;4.896;2023-08-06T00:55:00;99861.16;;;15.88;87.00
46942;BME280;32676;52.630;4.896;2023-08-06T00:57:26;99862.13;;;15.87;87.34
46942;BME280;32676;52.630;4.896;2023-08-06T00:59:54;99870.81;;;15.89;87.12
46942;BME280;32676;52.630;4.896;2023-08-06T01:02:21;99869.09;;;15.88;87.51
46942;BME280;32676;52.630;4.896;2023-08-06T01:04:47;99879.50;;;15.91;87.78
46942;BME280;32676;52.630;4.896;2023-08-06T01:07:25;99873.47;;;15.89;87.50
46942;BME280;32676;52.630;4.896;2023-08-06T01:09:57;99877.81;;;15.90;87.70
46942;BME280;32676;52.630;4.896;2023-08-06T01:12:29;99891.81;;;15.92;87.69
46942;BME280;32676;52.630;4.896;2023-08-06T01:15:02;99893.50;;;15.93;87.68
46942;BME280;32676;52.630;4.896;2023-08-06T01:17:31;99902.16;;;15.95;87.83
46942;BME280;32676;52.630;4.896;2023-08-06T01:19:57;99916.19;;;15.97;87.75
46942;BME280;32676;52.630;4.896;2023-08-06T01:22:25;99903.88;;;15.96;87.50
46942;BME280;32676;52.630;4.896;2023-08-06T01:24:51;99897.84;;;15.94;87.40
46942;BME280;32676;52.630;4.896;2023-08-06T01:27:20;99900.50;;;15.94;87.62
46942;BME280;32676;52.630;4.896;2023-08-06T01:29:52;99895.41;;;15.91;87.18
46942;BME280;32676;52.630;4.896;2023-08-06T01:32:20;99900.50;;;15.94;87.28
46942;BME280;32676;52.630;4.896;2023-08-06T01:34:47;99899.66;;;15.93;87.24
46942;BME280;32676;52.630;4.896;2023-08-06T01:37:14;99905.91;;;15.92;87.37
46942;BME280;32676;52.630;4.896;2023-08-06T01:39:43;99899.03;;;15.90;87.36
46942;BME280;32676;52.630;4.896;2023-08-06T01:42:09;99885.88;;;15.88;87.38
46942;BME280;32676;52.630;4.896;2023-08-06T01:44:36;99865.97;;;15.83;87.56
46942;BME280;32676;52.630;4.896;2023-08-06T01:47:02;99859.78;;;15.82;87.30
46942;BME280;32676;52.630;4.896;2023-08-06T01:49:28;99850.28;;;15.80;87.60
46942;BME280;32676;52.630;4.896;2023-08-06T01:51:55;99839.88;;;15.77;87.85
46942;BME280;32676;52.630;4.896;2023-08-06T01:54:21;99821.66;;;15.72;87.77
46942;BME280;32676;52.630;4.896;2023-08-06T01:56:49;99814.63;;;15.71;87.81
46942;BME280;32676;52.630;4.896;2023-08-06T01:59:15;99823.44;;;15.71;87.99
46942;BME280;32676;52.630;4.896;2023-08-06T02:01:41;99827.78;;;15.72;87.94
46942;BME280;32676;52.630;4.896;2023-08-06T02:04:08;99833.09;;;15.72;88.01
46942;BME280;32676;52.630;4.896;2023-08-06T02:06:34;99835.66;;;15.74;88.29
46942;BME280;32676;52.630;4.896;2023-08-06T02:09:00;99837.34;;;15.75;88.19
46942;BME280;32676;52.630;4.896;2023-08-06T02:11:27;99836.50;;;15.74;88.33
46942;BME280;32676;52.630;4.896;2023-08-06T02:13:54;99829.50;;;15.73;88.37
46942;BME280;32676;52.630;4.896;2023-08-06T02:16:20;99823.44;;;15.71;88.29
46942;BME280;32676;52.630;4.896;2023-08-06T02:18:47;99822.69;;;15.69;88.32
46942;BME280;32676;52.630;4.896;2023-08-06T02:21:13;99826.94;;;15.72;88.25
46942;BME280;32676;52.630;4.896;2023-08-06T02:23:40;99826.06;;;15.71;88.31
46942;BME280;32676;52.630;4.896;2023-08-06T02:26:06;99818.47;;;15.67;88.13
46942;BME280;32676;52.630;4.896;2023-08-06T02:28:32;99810.63;;;15.65;87.81
46942;BME280;32676;52.630;4.896;2023-08-06T02:31:00;99793.25;;;15.61;87.95
46942;BME280;32676;52.630;4.896;2023-08-06T02:33:26;99768.91;;;15.56;87.82
46942;BME280;32676;52.630;4.896;2023-08-06T02:35:58;99765.53;;;15.54;87.93
46942;BME280;32676;52.630;4.896;2023-08-06T02:38:25;99756.84;;;15.52;87.82
46942;BME280;32676;52.630;4.896;2023-08-06T02:40:51;99737.56;;;15.50;88.20
46942;BME280;32676;52.630;4.896;2023-08-06T02:43:17;99727.19;;;15.47;88.16
46942;BME280;32676;52.630;4.896;2023-08-06T02:45:43;99725.47;;;15.46;88.27
46942;BME280;32676;52.630;4.896;2023-08-06T02:48:11;99735.13;;;15.47;88.38
46942;BME280;32676;52.630;4.896;2023-08-06T02:50:38;99735.88;;;15.49;88.47
46942;BME280;32676;52.630;4.896;2023-08-06T02:53:05;99729.94;;;15.45;88.56
46942;BME280;32676;52.630;4.896;2023-08-06T02:55:31;99735.22;;;15.45;88.64
46942;BME280;32676;52.630;4.896;2023-08-06T02:57:58;99727.41;;;15.44;88.70
46942;BME280;32676;52.630;4.896;2023-08-06T03:00:25;99733.53;;;15.44;88.67
46942;BME280;32676;52.630;4.896;2023-08-06T03:02:51;99730.78;;;15.46;88.98
46942;BME280;32676;52.630;4.896;2023-08-06T03:05:19;99736.06;;;15.46;89.13
46942;BME280;32676;52.630;4.896;2023-08-06T03:07:45;99743.06;;;15.47;89.28
46942;BME280;32676;52.630;4.896;2023-08-06T03:10:11;99737.78;;;15.47;89.12
46942;BME280;32676;52.630;4.896;2023-08-06T03:12:38;99734.41;;;15.45;88.99
46942;BME280;32676;52.630;4.896;2023-08-06T03:15:05;99740.53;;;15.45;89.04
46942;BME280;32676;52.630;4.896;2023-08-06T03:17:31;99743.06;;;15.47;88.96
46942;BME280;32676;52.630;4.896;2023-08-06T03:19:57;99746.66;;;15.46;88.78
46942;BME280;32676;52.630;4.896;2023-08-06T03:22:25;99732.69;;;15.44;88.87
46942;BME280;32676;52.630;4.896;2023-08-06T03:24:51;99731.00;;;15.43;88.79
46942;BME280;32676;52.630;4.896;2023-08-06T03:27:18;99729.31;;;15.42;88.99
46942;BME280;32676;52.630;4.896;2023-08-06T03:29:44;99731.00;;;15.43;89.19
46942;BME280;32676;52.630;4.896;2023-08-06T03:32:10;99728.47;;;15.41;88.93
46942;BME280;32676;52.630;4.896;2023-08-06T03:34:36;99729.31;;;15.42;89.07
46942;BME280;32676;52.630;4.896;2023-08-06T03:37:03;99722.31;;;15.41;89.11
46942;BME280;32676;52.630;4.896;2023-08-06T03:39:30;99743.28;;;15.44;89.39
46942;BME280;32676;52.630;4.896;2023-08-06T03:41:57;99740.63;;;15.44;89.15
46942;BME280;32676;52.630;4.896;2023-08-06T03:44:23;99736.31;;;15.43;89.23
46942;BME280;32676;52.630;4.896;2023-08-06T03:46:49;99738.97;;;15.43;89.23
46942;BME280;32676;52.630;4.896;2023-08-06T03:49:15;99732.91;;;15.41;89.02
46942;BME280;32676;52.630;4.896;2023-08-06T03:51:42;99739.06;;;15.41;88.98
46942;BME280;32676;52.630;4.896;2023-08-06T03:54:08;99718.91;;;15.39;89.26
46942;BME280;32676;52.630;4.896;2023-08-06T03:56:36;99716.50;;;15.35;88.89
46942;BME280;32676;52.630;4.896;2023-08-06T03:59:02;99701.78;;;15.31;89.07
46942;BME280;32676;52.630;4.896;2023-08-06T04:01:28;99700.94;;;15.31;89.26
46942;BME280;32676;52.630;4.896;2023-08-06T04:03:54;99685.16;;;15.29;89.35
46942;BME280;32676;52.630;4.896;2023-08-06T04:06:21;99686.13;;;15.28;89.31
46942;BME280;32676;52.630;4.896;2023-08-06T04:08:47;99674.81;;;15.26;89.33
46942;BME280;32676;52.630;4.896;2023-08-06T04:11:13;99668.75;;;15.24;89.47
46942;BME280;32676;52.630;4.896;2023-08-06T04:13:43;99660.94;;;15.23;89.15
46942;BME280;32676;52.630;4.896;2023-08-06T04:16:09;99649.72;;;15.19;89.46
46942;BME280;32676;52.630;4.896;2023-08-06T04:18:36;99632.34;;;15.15;89.66
46942;BME280;32676;52.630;4.896;2023-08-06T04:21:02;99628.16;;;15.12;89.71
46942;BME280;32676;52.630;4.896;2023-08-06T04:23:28;99613.34;;;15.10;89.83
46942;BME280;32676;52.630;4.896;2023-08-06T04:25:56;99620.31;;;15.11;89.99
46942;BME280;32676;52.630;4.896;2023-08-06T04:28:22;99618.63;;;15.10;90.14
46942;BME280;32676;52.630;4.896;2023-08-06T04:30:50;99609.94;;;15.08;90.05
46942;BME280;32676;52.630;4.896;2023-08-06T04:33:16;99600.41;;;15.05;90.32
46942;BME280;32676;52.630;4.896;2023-08-06T04:35:42;99601.25;;;15.06;90.32
46942;BME280;32676;52.630;4.896;2023-08-06T04:38:08;99599.59;;;15.05;90.44
46942;BME280;32676;52.630;4.896;2023-08-06T04:40:35;99586.56;;;15.02;90.85
46942;BME280;32676;52.630;4.896;2023-08-06T04:43:01;99602.34;;;15.03;90.75
46942;BME280;32676;52.630;4.896;2023-08-06T04:45:28;99597.88;;;15.04;90.80
46942;BME280;32676;52.630;4.896;2023-08-06T04:47:55;99600.53;;;15.04;90.84
46942;BME280;32676;52.630;4.896;2023-08-06T04:50:21;99592.59;;;15.04;90.98
46942;BME280;32676;52.630;4.896;2023-08-06T04:52:48;99608.38;;;15.05;90.83
46942;BME280;32676;52.630;4.896;2023-08-06T04:55:14;99601.50;;;15.03;91.09
46942;BME280;32676;52.630;4.896;2023-08-06T04:57:40;99596.22;;;15.03;90.86
46942;BME280;32676;52.630;4.896;2023-08-06T05:00:07;99603.16;;;15.04;90.78
46942;BME280;32676;52.630;4.896;2023-08-06T05:02:34;99606.78;;;15.03;90.82
46942;BME280;32676;52.630;4.896;2023-08-06T05:05:04;99611.94;;;15.04;90.90
46942;BME280;32676;52.630;4.896;2023-08-06T05:07:30;99608.47;;;15.04;91.06
46942;BME280;32676;52.630;4.896;2023-08-06T05:09:57;99605.81;;;15.04;91.04
46942;BME280;32676;52.630;4.896;2023-08-06T05:12:23;99621.50;;;15.07;90.77
46942;BME280;32676;52.630;4.896;2023-08-06T05:14:49;99622.44;;;15.06;90.95
46942;BME280;32676;52.630;4.896;2023-08-06T05:17:16;99627.72;;;15.06;91.03
46942;BME280;32676;52.630;4.896;2023-08-06T05:19:42;99631.22;;;15.06;91.15
46942;BME280;32676;52.630;4.896;2023-08-06T05:22:09;99643.38;;;15.09;91.08
46942;BME280;32676;52.630;4.896;2023-08-06T05:24:36;99643.19;;;15.12;91.06
46942;BME280;32676;52.630;4.896;2023-08-06T05:27:02;99652.06;;;15.11;91.04
46942;BME280;32676;52.630;4.896;2023-08-06T05:29:28;99652.91;;;15.11;90.62
46942;BME280;32676;52.630;4.896;2023-08-06T05:31:55;99667.72;;;15.14;90.61
46942;BME280;32676;52.630;4.896;2023-08-06T05:34:21;99676.41;;;15.16;90.51
46942;BME280;32676;52.630;4.896;2023-08-06T05:36:47;99682.44;;;15.18;90.60
46942;BME280;32676;52.630;4.896;2023-08-06T05:39:15;99685.06;;;15.18;90.59
46942;BME280;32676;52.630;4.896;2023-08-06T05:41:41;99679.78;;;15.18;90.82
46942;BME280;32676;52.630;4.896;2023-08-06T05:44:08;99697.38;;;15.19;90.56
46942;BME280;32676;52.630;4.896;2023-08-06T05:46:34;99685.19;;;15.16;90.71
46942;BME280;32676;52.630;4.896;2023-08-06T05:49:00;99687.00;;;15.16;89.96
46942;BME280;32676;52.630;4.896;2023-08-06T05:51:26;99691.22;;;15.19;89.87
46942;BME280;32676;52.630;4.896;2023-08-06T05:53:53;99698.31;;;15.18;89.82
46942;BME280;32676;52.630;4.896;2023-08-06T05:56:20;99700.84;;;15.20;89.42
46942;BME280;32676;52.630;4.896;2023-08-06T05:58:47;99704.34;;;15.20;89.54
46942;BME280;32676;52.630;4.896;2023-08-06T06:01:13;99706.88;;;15.22;89.54
46942;BME280;32676;52.630;4.896;2023-08-06T06:03:40;99713.97;;;15.21;89.57
46942;BME280;32676;52.630;4.896;2023-08-06T06:06:06;99702.66;;;15.19;89.59
46942;BME280;32676;52.630;4.896;2023-08-06T06:08:32;99692.28;;;15.16;89.18
46942;BME280;32676;52.630;4.896;2023-08-06T06:10:59;99684.44;;;15.14;89.41
46942;BME280;32676;52.630;4.896;2023-08-06T06:13:26;99675.78;;;15.12;89.33
46942;BME280;32676;52.630;4.896;2023-08-06T06:15:53;99684.44;;;15.14;89.24
46942;BME280;32676;52.630;4.896;2023-08-06T06:18:20;99687.09;;;15.14;89.40
46942;BME280;32676;52.630;4.896;2023-08-06T06:20:46;99685.28;;;15.15;89.07
46942;BME280;32676;52.630;4.896;2023-08-06T06:23:12;99687.19;;;15.13;89.06
46942;BME280;32676;52.630;4.896;2023-08-06T06:25:41;99683.59;;;15.14;88.92
46942;BME280;32676;52.630;4.896;2023-08-06T06:28:07;99675.78;;;15.12;88.72
46942;BME280;32676;52.630;4.896;2023-08-06T06:30:35;99678.53;;;15.11;88.56
46942;BME280;32676;52.630;4.896;2023-08-06T06:33:01;99683.59;;;15.14;88.61
46942;BME280;32676;52.630;4.896;2023-08-06T06:35:28;99682.78;;;15.13;88.98
46942;BME280;32676;52.630;4.896;2023-08-06T06:37:54;99695.88;;;15.15;88.91
46942;BME280;32676;52.630;4.896;2023-08-06T06:40:20;99704.53;;;15.17;88.86
46942;BME280;32676;52.630;4.896;2023-08-06T06:42:47;99711.53;;;15.18;89.14
46942;BME280;32676;52.630;4.896;2023-08-06T06:45:13;99711.53;;;15.18;89.00
46942;BME280;32676;52.630;4.896;2023-08-06T06:47:41;99718.53;;;15.19;89.03
46942;BME280;32676;52.630;4.896;2023-08-06T06:50:07;99732.41;;;15.23;89.05
46942;BME280;32676;52.630;4.896;2023-08-06T06:52:34;99737.69;;;15.23;88.85
46942;BME280;32676;52.630;4.896;2023-08-06T06:55:00;99742.84;;;15.24;89.09
46942;BME280;32676;52.630;4.896;2023-08-06T06:57:26;99749.03;;;15.25;88.90
46942;BME280;32676;52.630;4.896;2023-08-06T06:59:53;99754.22;;;15.26;88.64
46942;BME280;32676;52.630;4.896;2023-08-06T07:02:19;99753.25;;;15.27;88.82
46942;BME280;32676;52.630;4.896;2023-08-06T07:04:47;99762.88;;;15.28;89.00
46942;BME280;32676;52.630;4.896;2023-08-06T07:07:13;99765.53;;;15.28;88.56
46942;BME280;32676;52.630;4.896;2023-08-06T07:09:39;99763.84;;;15.27;88.64
46942;BME280;32676;52.630;4.896;2023-08-06T07:12:06;99769.97;;;15.28;88.75
46942;BME280;32676;52.630;4.896;2023-08-06T07:14:32;99769.13;;;15.27;88.74
46942;BME280;32676;52.630;4.896;2023-08-06T07:16:58;99772.50;;;15.29;88.90
46942;BME280;32676;52.630;4.896;2023-08-06T07:19:25;99769.03;;;15.29;88.97
46942;BME280;32676;52.630;4.896;2023-08-06T07:21:52;99768.28;;;15.27;89.20
46942;BME280;32676;52.630;4.896;2023-08-06T07:24:20;99776.13;;;15.28;89.27
46942;BME280;32676;52.630;4.896;2023-08-06T07:26:46;99791.78;;;15.31;89.23
46942;BME280;32676;52.630;4.896;2023-08-06T07:29:13;99807.47;;;15.34;89.21
46942;BME280;32676;52.630;4.896;2023-08-06T07:31:44;99797.69;;;15.35;89.54
46942;BME280;32676;52.630;4.896;2023-08-06T07:34:10;99806.50;;;15.35;89.28
46942;BME280;32676;52.630;4.896;2023-08-06T07:36:37;99805.53;;;15.36;89.13
46942;BME280;32676;52.630;4.896;2023-08-06T07:39:05;99817.84;;;15.38;89.00
46942;BME280;32676;52.630;4.896;2023-08-06T07:41:31;99817.84;;;15.38;88.85
46942;BME280;32676;52.630;4.896;2023-08-06T07:43:57;99816.97;;;15.37;88.75
46942;BME280;32676;52.630;4.896;2023-08-06T07:46:23;99832.66;;;15.40;89.23
46942;BME280;32676;52.630;4.896;2023-08-06T07:48:50;99838.78;;;15.41;89.04
46942;BME280;32676;52.630;4.896;2023-08-06T07:51:16;99859.66;;;15.45;89.07
46942;BME280;32676;52.630;4.896;2023-08-06T07:53:42;99881.50;;;15.49;89.25
46942;BME280;32676;52.630;4.896;2023-08-06T07:56:10;99887.53;;;15.51;89.19
46942;BME280;32676;52.630;4.896;2023-08-06T07:58:36;99885.72;;;15.51;89.15
46942;BME280;32676;52.630;4.896;2023-08-06T08:01:02;99897.91;;;15.54;89.10
46942;BME280;32676;52.630;4.896;2023-08-06T08:03:29;99916.22;;;15.57;89.07
46942;BME280;32676;52.630;4.896;2023-08-06T08:05:55;99936.28;;;15.61;89.04
46942;BME280;32676;52.630;4.896;2023-08-06T08:08:23;99947.59;;;15.63;89.19
46942;BME280;32676;52.630;4.896;2023-08-06T08:10:49;99951.94;;;15.64;88.99
46942;BME280;32676;52.630;4.896;2023-08-06T08:13:17;99953.63;;;15.65;89.00
46942;BME280;32676;52.630;4.896;2023-08-06T08:15:43;99948.44;;;15.64;88.83
46942;BME280;32676;52.630;4.896;2023-08-06T08:18:10;99953.63;;;15.65;88.96
46942;BME280;32676;52.630;4.896;2023-08-06T08:20:36;99957.22;;;15.64;89.01
46942;BME280;32676;52.630;4.896;2023-08-06T08:23:02;99978.03;;;15.70;88.87
46942;BME280;32676;52.630;4.896;2023-08-06T08:25:29;99991.06;;;15.73;88.93
46942;BME280;32676;52.630;4.896;2023-08-06T08:27:56;100009.41;;;15.77;88.75
46942;BME280;32676;52.630;4.896;2023-08-06T08:30:24;100020.75;;;15.79;88.44
46942;BME280;32676;52.630;4.896;2023-08-06T08:32:51;100046.84;;;15.85;88.22
46942;BME280;32676;52.630;4.896;2023-08-06T08:35:17;100066.78;;;15.90;87.82
46942;BME280;32676;52.630;4.896;2023-08-06T08:37:43;100070.28;;;15.91;87.43
46942;BME280;32676;52.630;4.896;2023-08-06T08:40:10;100092.97;;;15.95;87.11
46942;BME280;32676;52.630;4.896;2023-08-06T08:42:36;100111.22;;;16.00;86.80
46942;BME280;32676;52.630;4.896;2023-08-06T08:45:04;100139.84;;;16.07;86.70
46942;BME280;32676;52.630;4.896;2023-08-06T08:47:31;100153.84;;;16.09;86.96
46942;BME280;32676;52.630;4.896;2023-08-06T08:49:58;100177.41;;;16.14;86.45
46942;BME280;32676;52.630;4.896;2023-08-06T08:52:25;100195.66;;;16.19;85.91
46942;BME280;32676;52.630;4.896;2023-08-06T08:54:55;100197.34;;;16.20;85.83
46942;BME280;32676;52.630;4.896;2023-08-06T08:57:22;100215.81;;;16.21;85.35
46942;BME280;32676;52.630;4.896;2023-08-06T08:59:48;100234.06;;;16.26;85.14
46942;BME280;32676;52.630;4.896;2023-08-06T09:02:14;100236.63;;;16.27;85.06
46942;BME280;32676;52.630;4.896;2023-08-06T09:04:43;100258.47;;;16.31;85.05
46942;BME280;32676;52.630;4.896;2023-08-06T09:07:10;100256.78;;;16.30;85.38
46942;BME280;32676;52.630;4.896;2023-08-06T09:09:39;100254.97;;;16.30;85.23
46942;BME280;32676;52.630;4.896;2023-08-06T09:12:12;100258.47;;;16.31;85.10
46942;BME280;32676;52.630;4.896;2023-08-06T09:14:38;100261.03;;;16.33;84.83
46942;BME280;32676;52.630;4.896;2023-08-06T09:17:04;100271.53;;;16.34;84.84
46942;BME280;32676;52.630;4.896;2023-08-06T09:19:31;100281.19;;;16.35;85.23
46942;BME280;32676;52.630;4.896;2023-08-06T09:21:58;100281.19;;;16.35;85.15
46942;BME280;32676;52.630;4.896;2023-08-06T09:24:25;100288.94;;;16.38;85.14
46942;BME280;32676;52.630;4.896;2023-08-06T09:26:52;100304.66;;;16.41;85.42
46942;BME280;32676;52.630;4.896;2023-08-06T09:29:19;100321.13;;;16.46;85.27
46942;BME280;32676;52.630;4.896;2023-08-06T09:31:46;100347.34;;;16.51;85.27
46942;BME280;32676;52.630;4.896;2023-08-06T09:34:14;100361.25;;;16.55;85.30
46942;BME280;32676;52.630;4.896;2023-08-06T09:36:41;100382.28;;;16.58;85.32
46942;BME280;32676;52.630;4.896;2023-08-06T09:39:13;100375.25;;;16.57;84.97
46942;BME280;32676;52.630;4.896;2023-08-06T09:41:40;100383.97;;;16.59;84.55
46942;BME280;32676;52.630;4.896;2023-08-06T09:44:11;100383.97;;;16.59;84.97
46942;BME280;32676;52.630;4.896;2023-08-06T09:46:40;100368.28;;;16.56;84.68
46942;BME280;32676;52.630;4.896;2023-08-06T09:49:07;100389.28;;;16.59;84.19
46942;BME280;32676;52.630;4.896;2023-08-06T09:51:34;100389.28;;;16.59;83.98
46942;BME280;32676;52.630;4.896;2023-08-06T09:54:01;100377.81;;;16.58;83.60
46942;BME280;32676;52.630;4.896;2023-08-06T09:56:29;100383.97;;;16.59;83.17
46942;BME280;32676;52.630;4.896;2023-08-06T09:58:58;100395.34;;;16.61;83.07
46942;BME280;32676;52.630;4.896;2023-08-06T10:01:24;100408.41;;;16.64;82.96
46942;BME280;32676;52.630;4.896;2023-08-06T10:03:51;100421.47;;;16.67;82.99
46942;BME280;32676;52.630;4.896;2023-08-06T10:06:18;100433.69;;;16.69;82.89
46942;BME280;32676;52.630;4.896;2023-08-06T10:08:45;100432.84;;;16.69;82.72
46942;BME280;32676;52.630;4.896;2023-08-06T10:11:12;100445.91;;;16.72;82.88
46942;BME280;32676;52.630;4.896;2023-08-06T10:13:40;100451.13;;;16.74;82.81
46942;BME280;32676;52.630;4.896;2023-08-06T10:16:07;100453.66;;;16.75;83.03
46942;BME280;32676;52.630;4.896;2023-08-06T10:18:33;100461.53;;;16.77;82.47
46942;BME280;32676;52.630;4.896;2023-08-06T10:21:01;100475.44;;;16.80;82.55
46942;BME280;32676;52.630;4.896;2023-08-06T10:23:34;100506.00;;;16.87;82.32
46942;BME280;32676;52.630;4.896;2023-08-06T10:26:03;100533.19;;;16.91;81.93
46942;BME280;32676;52.630;4.896;2023-08-06T10:28:36;100545.31;;;16.95;81.29
46942;BME280;32676;52.630;4.896;2023-08-06T10:31:04;100568.81;;;17.01;81.33
46942;BME280;32676;52.630;4.896;2023-08-06T10:33:41;100598.47;;;17.08;81.23
46942;BME280;32676;52.630;4.896;2023-08-06T10:36:08;100631.66;;;17.15;81.18
46942;BME280;32676;52.630;4.896;2023-08-06T10:38:35;100650.81;;;17.20;81.00
46942;BME280;32676;52.630;4.896;2023-08-06T10:41:03;100670.91;;;17.24;80.83
46942;BME280;32676;52.630;4.896;2023-08-06T10:43:29;100674.44;;;17.25;80.16
46942;BME280;32676;52.630;4.896;2023-08-06T10:45:56;100674.44;;;17.25;79.82
46942;BME280;32676;52.630;4.896;2023-08-06T10:48:31;100669.22;;;17.23;79.59
46942;BME280;32676;52.630;4.896;2023-08-06T10:50:58;100657.00;;;17.21;79.13
46942;BME280;32676;52.630;4.896;2023-08-06T10:53:25;100636.78;;;17.18;79.35
46942;BME280;32676;52.630;4.896;2023-08-06T10:55:51;100626.34;;;17.15;79.46
46942;BME280;32676;52.630;4.896;2023-08-06T10:58:17;100610.63;;;17.12;79.31
46942;BME280;32676;52.630;4.896;2023-08-06T11:00:44;100612.31;;;17.13;79.86
46942;BME280;32676;52.630;4.896;2023-08-06T11:03:10;100608.91;;;17.11;79.94
46942;BME280;32676;52.630;4.896;2023-08-06T11:05:39;100595.72;;;17.10;80.09
46942;BME280;32676;52.630;4.896;2023-08-06T11:08:05;100600.19;;;17.09;80.17
46942;BME280;32676;52.630;4.896;2023-08-06T11:10:32;100596.59;;;17.10;80.16
46942;BME280;32676;52.630;4.896;2023-08-06T11:13:00;100604.56;;;17.10;80.66
46942;BME280;32676;52.630;4.896;2023-08-06T11:15:26;100607.09;;;17.12;80.91
46942;BME280;32676;52.630;4.896;2023-08-06T11:17:53;100612.31;;;17.13;80.86
46942;BME280;32676;52.630;4.896;2023-08-06T11:20:20;100595.72;;;17.10;80.26
46942;BME280;32676;52.630;4.896;2023-08-06T11:22:47;100594.88;;;17.09;80.26
46942;BME280;32676;52.630;4.896;2023-08-06T11:25:14;100602.75;;;17.11;80.18
46942;BME280;32676;52.630;4.896;2023-08-06T11:27:40;100596.59;;;17.10;80.38
46942;BME280;32676;52.630;4.896;2023-08-06T11:30:07;100617.53;;;17.15;80.90
46942;BME280;32676;52.630;4.896;2023-08-06T11:32:33;100614.88;;;17.15;81.17
46942;BME280;32676;52.630;4.896;2023-08-06T11:35:10;100631.47;;;17.18;81.12
46942;BME280;32676;52.630;4.896;2023-08-06T11:37:37;100653.28;;;17.23;80.89
46942;BME280;32676;52.630;4.896;2023-08-06T11:40:07;100674.34;;;17.26;80.77
46942;BME280;32676;52.630;4.896;2023-08-06T11:42:34;100702.22;;;17.34;81.17
46942;BME280;32676;52.630;4.896;2023-08-06T11:45:01;100721.47;;;17.37;80.98
46942;BME280;32676;52.630;4.896;2023-08-06T11:47:29;100741.47;;;17.43;80.07
46942;BME280;32676;52.630;4.896;2023-08-06T11:49:56;100758.94;;;17.47;79.44
46942;BME280;32676;52.630;4.896;2023-08-06T11:52:22;100758.94;;;17.47;78.65
46942;BME280;32676;52.630;4.896;2023-08-06T11:54:59;100777.34;;;17.50;78.03
46942;BME280;32676;52.630;4.896;2023-08-06T11:57:27;100791.16;;;17.55;78.04
46942;BME280;32676;52.630;4.896;2023-08-06T11:59:57;100808.75;;;17.58;78.04
46942;BME280;32676;52.630;4.896;2023-08-06T12:02:24;100801.72;;;17.57;77.45
46942;BME280;32676;52.630;4.896;2023-08-06T12:04:59;100802.59;;;17.57;77.13
46942;BME280;32676;52.630;4.896;2023-08-06T12:07:26;100801.63;;;17.58;77.33
46942;BME280;32676;52.630;4.896;2023-08-06T12:09:52;100808.66;;;17.59;77.19
46942;BME280;32676;52.630;4.896;2023-08-06T12:12:18;100814.72;;;17.61;77.26
46942;BME280;32676;52.630;4.896;2023-08-06T12:14:46;100825.34;;;17.61;77.42
46942;BME280;32676;52.630;4.896;2023-08-06T12:17:12;100814.81;;;17.60;77.25
46942;BME280;32676;52.630;4.896;2023-08-06T12:19:38;100828.75;;;17.63;77.31
46942;BME280;32676;52.630;4.896;2023-08-06T12:22:05;100813.88;;;17.61;77.33
46942;BME280;32676;52.630;4.896;2023-08-06T12:24:31;100821.72;;;17.62;77.32
46942;BME280;32676;52.630;4.896;2023-08-06T12:26:57;100827.03;;;17.62;77.08
46942;BME280;32676;52.630;4.896;2023-08-06T12:29:24;100822.59;;;17.63;76.61
46942;BME280;32676;52.630;4.896;2023-08-06T12:31:52;100821.72;;;17.62;77.19
46942;BME280;32676;52.630;4.896;2023-08-06T12:34:18;100829.53;;;17.65;77.42
46942;BME280;32676;52.630;4.896;2023-08-06T12:36:44;100820.78;;;17.63;77.22
46942;BME280;32676;52.630;4.896;2023-08-06T12:39:12;100839.22;;;17.67;77.74
46942;BME280;32676;52.630;4.896;2023-08-06T12:41:39;100842.63;;;17.69;78.32
46942;BME280;32676;52.630;4.896;2023-08-06T12:44:05;100852.19;;;17.71;78.53
46942;BME280;32676;52.630;4.896;2023-08-06T12:46:31;100823.44;;;17.63;78.29
46942;BME280;32676;52.630;4.896;2023-08-06T12:48:59;100799.81;;;17.59;77.66
46942;BME280;32676;52.630;4.896;2023-08-06T12:51:24;100770.13;;;17.52;76.74
46942;BME280;32676;52.630;4.896;2023-08-06T12:53:51;100756.09;;;17.50;76.83
46942;BME280;32676;52.630;4.896;2023-08-06T12:56:17;100763.00;;;17.53;76.97